createdAt,value
2023-06-19T00:02:30.798Z,22.52
2023-06-19T00:05:32.213Z,22.65
2023-06-19T00:08:33.620Z,22.71
2023-06-19T00:11:35.069Z,22.73
2023-06-19T00:14:37.588Z,22.74
2023-06-19T00:17:39.115Z,22.69
2023-06-19T00:20:40.654Z,22.61
2023-06-19T00:23:42.077Z,22.58
2023-06-19T00:26:43.890Z,22.54
2023-06-19T00:29:45.364Z,22.52
2023-06-19T00:32:47.672Z,22.47
2023-06-19T00:35:52.448Z,22.45
2023-06-19T00:38:53.907Z,22.42
2023-06-19T00:41:56.497Z,22.43
2023-06-19T00:44:57.907Z,22.37
2023-06-19T00:48:01.497Z,22.38
2023-06-19T00:51:03.387Z,22.36
2023-06-19T00:54:05.626Z,22.32
2023-06-19T00:57:08.196Z,22.33
2023-06-19T01:00:13.334Z,22.34
2023-06-19T01:03:17.798Z,22.22
2023-06-19T01:06:39.473Z,22.22
2023-06-19T01:10:05.481Z,22.26
2023-06-19T01:13:11.788Z,22.31
2023-06-19T01:16:13.795Z,22.30
2023-06-19T01:19:20.840Z,22.33
2023-06-19T01:22:32.095Z,22.29
2023-06-19T01:25:33.512Z,22.35
2023-06-19T01:28:39.927Z,22.35
2023-06-19T01:31:51.578Z,22.34
2023-06-19T01:34:55.552Z,22.21
2023-06-19T01:37:57.803Z,22.08
2023-06-19T01:41:01.850Z,21.97
2023-06-19T01:44:03.567Z,21.89
2023-06-19T01:47:10.454Z,21.84
2023-06-19T01:50:12.278Z,21.78
2023-06-19T01:53:14.353Z,21.80
2023-06-19T01:56:16.499Z,21.79
2023-06-19T01:59:17.946Z,21.74
2023-06-19T02:02:19.401Z,21.50
2023-06-19T02:05:20.854Z,21.35
2023-06-19T02:08:22.284Z,21.34
2023-06-19T02:11:23.885Z,21.40
2023-06-19T02:14:25.264Z,21.36
2023-06-19T02:17:26.962Z,21.33
2023-06-19T02:20:28.435Z,21.28
2023-06-19T02:23:29.941Z,21.27
2023-06-19T02:26:31.398Z,21.14
2023-06-19T02:29:34.901Z,21.11
2023-06-19T02:32:36.355Z,21.19
2023-06-19T02:35:37.799Z,21.21
2023-06-19T02:38:39.229Z,21.24
2023-06-19T02:41:40.634Z,21.20
2023-06-19T02:44:43.529Z,21.22
2023-06-19T02:47:45.054Z,21.21
2023-06-19T02:50:46.512Z,21.22
2023-06-19T02:53:48.623Z,21.24
2023-06-19T02:56:50.083Z,21.14
2023-06-19T02:59:51.481Z,21.07
2023-06-19T03:02:52.984Z,21.08
2023-06-19T03:05:54.451Z,21.10
2023-06-19T03:08:55.847Z,21.05
2023-06-19T03:11:57.358Z,20.90
2023-06-19T03:14:58.785Z,20.83
2023-06-19T03:18:00.325Z,20.82
2023-06-19T03:21:01.748Z,20.78
2023-06-19T03:24:03.746Z,20.78
2023-06-19T03:27:05.576Z,20.71
2023-06-19T03:30:07.352Z,20.66
2023-06-19T03:33:08.810Z,20.56
2023-06-19T03:36:10.263Z,20.61
2023-06-19T03:39:11.691Z,20.53
2023-06-19T03:42:13.137Z,20.49
2023-06-19T03:45:14.646Z,20.56
2023-06-19T03:48:17.704Z,20.68
2023-06-19T03:51:19.214Z,20.58
2023-06-19T03:54:20.833Z,20.63
2023-06-19T03:57:22.341Z,20.74
2023-06-19T04:00:24.085Z,20.84
2023-06-19T04:03:25.861Z,20.89
2023-06-19T04:06:27.423Z,20.85
2023-06-19T04:09:28.811Z,20.83
2023-06-19T04:12:30.398Z,20.74
2023-06-19T04:15:33.202Z,20.70
2023-06-19T04:18:34.678Z,20.77
2023-06-19T04:21:36.120Z,20.83
2023-06-19T04:24:37.651Z,20.94
2023-06-19T04:27:39.203Z,20.99
2023-06-19T04:30:40.683Z,20.95
2023-06-19T04:33:42.986Z,20.95
2023-06-19T04:36:45.516Z,20.84
2023-06-19T04:39:47.479Z,20.94
2023-06-19T04:42:48.933Z,20.79
2023-06-19T04:45:50.411Z,20.82
2023-06-19T04:48:51.917Z,20.85
2023-06-19T04:51:53.349Z,20.95
2023-06-19T04:54:54.929Z,20.95
2023-06-19T04:57:56.340Z,20.92
2023-06-19T05:00:57.786Z,21.01
2023-06-19T05:04:00.646Z,21.03
2023-06-19T05:07:02.393Z,21.00
2023-06-19T05:10:03.933Z,20.94
2023-06-19T05:13:05.382Z,20.99
2023-06-19T05:16:06.929Z,21.02
2023-06-19T05:19:08.361Z,21.11
2023-06-19T05:22:09.904Z,21.09
2023-06-19T05:25:11.364Z,21.13
2023-06-19T05:28:12.793Z,21.28
2023-06-19T05:31:14.456Z,21.27
2023-06-19T05:34:15.873Z,21.40
2023-06-19T05:37:17.803Z,21.45
2023-06-19T05:40:19.220Z,21.34
2023-06-19T05:43:20.657Z,21.45
2023-06-19T05:46:22.170Z,21.66
2023-06-19T05:49:23.726Z,21.75
2023-06-19T05:52:25.663Z,21.79
2023-06-19T05:55:28.536Z,21.83
2023-06-19T05:58:30.007Z,21.87
2023-06-19T06:01:31.659Z,21.64
2023-06-19T06:04:33.104Z,21.74
2023-06-19T06:07:36.563Z,21.74
2023-06-19T06:10:38.888Z,21.72
2023-06-19T06:13:40.340Z,21.77
2023-06-19T06:16:41.817Z,21.83
2023-06-19T06:19:43.308Z,22.20
2023-06-19T06:22:45.061Z,22.35
2023-06-19T06:25:46.887Z,22.17
2023-06-19T06:28:49.048Z,22.17
2023-06-19T06:31:53.465Z,22.31
2023-06-19T06:34:54.891Z,22.40
2023-06-19T06:37:56.394Z,22.40
2023-06-19T06:40:57.910Z,22.55
2023-06-19T06:43:59.326Z,22.48
2023-06-19T06:47:00.795Z,22.46
2023-06-19T06:50:02.232Z,22.50
2023-06-19T06:53:04.814Z,22.64
2023-06-19T06:56:06.252Z,22.74
2023-06-19T06:59:10.759Z,22.83
2023-06-19T07:02:13.715Z,22.91
2023-06-19T07:05:15.251Z,22.88
2023-06-19T07:08:17.006Z,22.83
2023-06-19T07:11:18.439Z,22.87
2023-06-19T07:14:19.837Z,22.88
2023-06-19T07:17:21.910Z,23.00
2023-06-19T07:20:23.531Z,23.10
2023-06-19T07:23:25.315Z,23.30
2023-06-19T07:26:27.081Z,23.33
2023-06-19T07:29:28.492Z,23.55
2023-06-19T07:32:29.953Z,23.63
2023-06-19T07:35:31.400Z,23.58
2023-06-19T07:38:32.880Z,23.62
2023-06-19T07:41:34.304Z,23.51
2023-06-19T07:44:35.721Z,23.51
2023-06-19T07:47:37.838Z,23.73
2023-06-19T07:50:39.232Z,23.64
2023-06-19T07:53:40.848Z,23.44
2023-06-19T07:56:42.632Z,23.51
2023-06-19T07:59:45.753Z,23.50
2023-06-19T08:02:47.312Z,23.61
2023-06-19T08:05:48.803Z,23.70
2023-06-19T08:08:50.265Z,23.69
2023-06-19T08:11:51.678Z,23.74
2023-06-19T08:14:53.084Z,23.77
2023-06-19T08:17:54.539Z,23.80
2023-06-19T08:20:56.022Z,23.72
2023-06-19T08:23:57.509Z,23.93
2023-06-19T08:26:59.659Z,23.95
2023-06-19T08:30:01.056Z,24.07
2023-06-19T08:33:02.639Z,24.11
2023-06-19T08:36:04.361Z,23.86
2023-06-19T08:39:05.961Z,24.03
2023-06-19T08:42:09.043Z,24.18
2023-06-19T08:45:10.747Z,24.20
2023-06-19T08:48:15.109Z,24.15
2023-06-19T08:51:16.497Z,24.31
2023-06-19T08:54:18.603Z,24.63
2023-06-19T08:57:20.256Z,24.78
2023-06-19T09:00:29.828Z,24.90
2023-06-19T09:03:31.745Z,24.42
2023-06-19T09:06:33.331Z,24.37
2023-06-19T09:09:35.126Z,24.46
2023-06-19T09:12:36.721Z,24.64
2023-06-19T09:15:38.728Z,24.62
2023-06-19T09:18:49.502Z,24.52
2023-06-19T09:21:50.970Z,24.42
2023-06-19T09:24:52.625Z,24.66
2023-06-19T09:27:55.504Z,24.49
2023-06-19T09:31:01.813Z,24.60
2023-06-19T09:34:03.480Z,24.79
2023-06-19T09:37:05.371Z,24.95
2023-06-19T09:40:14.211Z,25.04
2023-06-19T09:43:23.452Z,25.06
2023-06-19T09:46:33.479Z,25.13
2023-06-19T09:49:36.027Z,25.29
2023-06-19T09:52:37.562Z,25.27
2023-06-19T09:55:39.881Z,25.50
2023-06-19T09:58:44.106Z,25.41
2023-06-19T10:01:46.219Z,25.31
2023-06-19T10:04:51.662Z,25.29
2023-06-19T10:07:53.097Z,25.26
2023-06-19T10:10:56.130Z,25.29
2023-06-19T10:14:07.136Z,25.43
2023-06-19T10:17:13.443Z,25.50
2023-06-19T10:20:26.911Z,25.31
2023-06-19T10:23:29.834Z,25.56
2023-06-19T10:26:33.460Z,25.59
2023-06-19T10:29:43.122Z,25.83
2023-06-19T10:32:49.111Z,26.04
2023-06-19T10:35:50.572Z,26.19
2023-06-19T10:38:52.092Z,26.26
2023-06-19T10:41:53.535Z,26.33
2023-06-19T10:45:04.404Z,26.59
2023-06-19T10:48:06.252Z,26.62
2023-06-19T10:51:07.743Z,26.67
2023-06-19T10:54:09.237Z,26.43
2023-06-19T10:57:10.670Z,26.46
2023-06-19T11:00:13.862Z,26.53
2023-06-19T11:03:15.507Z,26.78
2023-06-19T11:06:23.085Z,26.84
2023-06-19T11:09:25.626Z,27.03
2023-06-19T11:12:27.046Z,27.12
2023-06-19T11:15:35.719Z,27.23
2023-06-19T11:18:37.269Z,26.97
2023-06-19T11:21:42.045Z,27.15
2023-06-19T11:24:47.737Z,27.31
2023-06-19T11:27:53.021Z,27.50
2023-06-19T11:31:03.885Z,27.74
2023-06-19T11:34:05.493Z,28.04
2023-06-19T11:37:18.956Z,28.20
2023-06-19T11:40:24.361Z,28.36
2023-06-19T11:43:31.292Z,28.30
2023-06-19T11:46:34.457Z,28.21
2023-06-19T11:49:36.937Z,28.05
2023-06-19T11:52:38.551Z,27.97
2023-06-19T11:55:40.032Z,28.05
2023-06-19T11:58:41.506Z,28.27
2023-06-19T12:01:42.930Z,28.22
2023-06-19T12:04:44.768Z,28.26
2023-06-19T12:07:46.449Z,28.15
2023-06-19T12:10:47.852Z,28.05
2023-06-19T12:13:49.649Z,28.21
2023-06-19T12:16:51.184Z,28.24
2023-06-19T12:19:54.303Z,28.14
2023-06-19T12:22:56.033Z,28.32
2023-06-19T12:25:58.308Z,28.52
2023-06-19T12:28:59.931Z,28.68
2023-06-19T12:32:03.800Z,28.87
2023-06-19T12:35:05.669Z,28.79
2023-06-19T12:38:07.811Z,28.77
2023-06-19T12:41:09.434Z,28.81
2023-06-19T12:44:11.276Z,29.03
2023-06-19T12:47:13.303Z,29.32
2023-06-19T12:50:14.776Z,29.43
2023-06-19T12:53:16.166Z,29.56
2023-06-19T12:56:17.557Z,29.61
2023-06-19T12:59:19.278Z,29.89
2023-06-19T13:02:21.097Z,29.74
2023-06-19T13:05:22.556Z,29.63
2023-06-19T13:08:23.956Z,29.77
2023-06-19T13:11:25.360Z,29.95
2023-06-19T13:14:26.781Z,30.17
2023-06-19T13:17:28.226Z,30.36
2023-06-19T13:20:29.677Z,30.56
2023-06-19T13:23:32.125Z,30.57
2023-06-19T13:26:33.715Z,30.29
2023-06-19T13:29:35.148Z,30.36
2023-06-19T13:32:36.643Z,30.32
2023-06-19T13:35:38.177Z,30.16
2023-06-19T13:38:39.897Z,30.17
2023-06-19T13:41:42.284Z,29.98
2023-06-19T13:44:43.720Z,29.89
2023-06-19T13:47:45.297Z,29.99
2023-06-19T13:50:47.633Z,30.09
2023-06-19T13:53:49.555Z,30.17
2023-06-19T13:56:52.197Z,30.36
2023-06-19T13:59:53.681Z,30.51
2023-06-19T14:03:00.423Z,30.68
2023-06-19T14:06:01.953Z,31.07
2023-06-19T14:09:03.392Z,30.87
2023-06-19T14:12:05.288Z,30.75
2023-06-19T14:15:09.033Z,30.58
2023-06-19T14:18:10.801Z,30.45
2023-06-19T14:21:12.455Z,30.41
2023-06-19T14:24:14.118Z,30.46
2023-06-19T14:27:16.125Z,30.13
2023-06-19T14:30:17.793Z,29.82
2023-06-19T14:33:19.577Z,29.34
2023-06-19T14:36:21.115Z,29.24
2023-06-19T14:39:22.862Z,29.37
2023-06-19T14:42:24.364Z,29.48
2023-06-19T14:45:28.249Z,29.65
2023-06-19T14:48:31.511Z,29.76
2023-06-19T14:51:33.277Z,30.00
2023-06-19T14:54:34.961Z,30.05
2023-06-19T14:57:37.328Z,30.00
2023-06-19T15:00:39.536Z,29.92
2023-06-19T15:03:41.147Z,29.92
2023-06-19T15:06:42.934Z,30.03
2023-06-19T15:09:44.340Z,30.10
2023-06-19T15:12:45.771Z,30.42
2023-06-19T15:15:47.776Z,30.46
2023-06-19T15:18:49.382Z,30.44
2023-06-19T15:21:51.174Z,30.59
2023-06-19T15:24:52.612Z,29.90
2023-06-19T15:27:54.032Z,29.25
2023-06-19T15:30:55.448Z,28.80
2023-06-19T15:33:56.945Z,28.55
2023-06-19T15:36:59.402Z,28.24
2023-06-19T15:40:02.548Z,28.33
2023-06-19T15:43:05.905Z,28.25
2023-06-19T15:46:09.189Z,28.11
2023-06-19T15:49:13.942Z,27.99
2023-06-19T15:52:15.508Z,28.10
2023-06-19T15:55:16.951Z,28.23
2023-06-19T15:58:18.448Z,28.36
2023-06-19T16:01:19.968Z,27.85
2023-06-19T16:04:21.620Z,27.87
2023-06-19T16:07:23.156Z,27.80
2023-06-19T16:10:25.026Z,27.92
2023-06-19T16:13:26.645Z,27.88
2023-06-19T16:16:28.154Z,28.02
2023-06-19T16:19:29.597Z,28.14
2023-06-19T16:22:31.027Z,27.99
2023-06-19T16:25:32.441Z,27.92
2023-06-19T16:28:33.973Z,27.93
2023-06-19T16:31:41.302Z,28.31
2023-06-19T16:34:43.428Z,28.45
2023-06-19T16:37:44.869Z,28.12
2023-06-19T16:40:46.490Z,28.21
2023-06-19T16:43:47.905Z,28.25
2023-06-19T16:46:50.432Z,28.49
2023-06-19T16:49:51.894Z,28.42
2023-06-19T16:52:53.479Z,28.46
2023-06-19T16:55:56.899Z,28.47
2023-06-19T16:58:58.608Z,28.41
2023-06-19T17:02:00.221Z,28.49
2023-06-19T17:05:01.796Z,28.56
2023-06-19T17:08:03.348Z,28.70
2023-06-19T17:11:04.816Z,28.90
2023-06-19T17:14:06.241Z,29.07
2023-06-19T17:17:07.751Z,28.99
2023-06-19T17:20:10.289Z,28.94
2023-06-19T17:23:11.800Z,29.02
2023-06-19T17:26:13.403Z,29.01
2023-06-19T17:29:14.841Z,29.11
2023-06-19T17:32:16.246Z,29.04
2023-06-19T17:35:18.545Z,29.22
2023-06-19T17:38:19.978Z,29.36
2023-06-19T17:41:21.410Z,29.45
2023-06-19T17:44:26.485Z,29.41
2023-06-19T17:47:27.973Z,29.22
2023-06-19T17:50:29.689Z,29.23
2023-06-19T17:53:31.610Z,29.24
2023-06-19T17:56:33.138Z,29.23
2023-06-19T17:59:34.829Z,28.98
2023-06-19T18:02:36.440Z,28.91
2023-06-19T18:05:38.007Z,28.87
2023-06-19T18:08:39.450Z,29.06
2023-06-19T18:11:40.892Z,29.21
2023-06-19T18:14:43.158Z,29.30
2023-06-19T18:17:44.599Z,29.27
2023-06-19T18:20:46.118Z,29.22
2023-06-19T18:23:48.956Z,29.26
2023-06-19T18:26:51.358Z,29.25
2023-06-19T18:29:52.898Z,29.25
2023-06-19T18:32:54.389Z,29.22
2023-06-19T18:35:55.884Z,29.20
2023-06-19T18:38:57.430Z,29.18
2023-06-19T18:41:58.931Z,29.12
2023-06-19T18:45:00.452Z,29.08
2023-06-19T18:51:36.328Z,28.87
2023-06-19T18:54:39.974Z,28.78
2023-06-19T18:57:47.295Z,28.66
2023-06-19T19:00:57.381Z,28.52
2023-06-19T19:04:08.020Z,28.45
2023-06-19T19:07:09.516Z,28.42
2023-06-19T19:10:11.126Z,28.41
2023-06-19T19:13:13.871Z,28.39
2023-06-19T19:16:15.398Z,28.35
2023-06-19T19:19:16.902Z,28.31
2023-06-19T19:22:18.405Z,28.23
2023-06-19T19:25:19.872Z,28.13
2023-06-19T19:28:21.267Z,28.06
2023-06-19T19:31:22.652Z,28.02
2023-06-19T19:34:26.226Z,27.92
2023-06-19T19:37:32.796Z,27.86
2023-06-19T19:40:34.463Z,27.81
2023-06-19T19:43:36.005Z,27.73
2023-06-19T19:46:38.968Z,27.68
2023-06-19T19:49:40.502Z,27.66
2023-06-19T19:52:48.075Z,27.54
2023-06-19T19:55:49.963Z,27.52
2023-06-19T19:58:52.404Z,27.46
2023-06-19T20:01:53.945Z,27.47
2023-06-19T20:04:55.391Z,27.40
2023-06-19T20:07:56.784Z,27.35
2023-06-19T20:10:58.203Z,27.27
2023-06-19T20:13:59.637Z,27.21
2023-06-19T20:17:01.087Z,27.16
2023-06-19T20:20:05.045Z,27.09
2023-06-19T20:23:07.101Z,27.05
2023-06-19T20:26:08.521Z,26.94
2023-06-19T20:29:19.548Z,26.85
2023-06-19T20:32:23.938Z,26.80
2023-06-19T20:35:25.311Z,26.67
2023-06-19T20:38:26.722Z,26.69
2023-06-19T20:41:28.116Z,26.68
2023-06-19T20:44:29.777Z,26.58
2023-06-19T20:47:31.207Z,26.45
2023-06-19T20:50:32.680Z,26.38
2023-06-19T20:53:34.122Z,26.20
2023-06-19T20:56:36.012Z,26.11
2023-06-19T20:59:37.454Z,26.05
2023-06-19T21:02:39.056Z,25.93
2023-06-19T21:05:40.540Z,25.93
2023-06-19T21:08:41.983Z,25.89
2023-06-19T21:11:43.390Z,25.76
2023-06-19T21:14:44.967Z,25.64
2023-06-19T21:17:46.473Z,25.58
2023-06-19T21:20:49.369Z,25.56
2023-06-19T21:23:50.826Z,25.59
2023-06-19T21:26:52.264Z,25.68
2023-06-19T21:29:53.661Z,25.74
2023-06-19T21:32:55.125Z,25.78
2023-06-19T21:35:56.568Z,25.84
2023-06-19T21:38:57.961Z,25.82
2023-06-19T21:41:59.374Z,25.73
2023-06-19T21:45:01.842Z,25.75
2023-06-19T21:48:03.395Z,25.75
2023-06-19T21:51:04.839Z,25.74
2023-06-19T21:54:06.334Z,25.71
2023-06-19T21:57:08.038Z,25.65
2023-06-19T22:00:10.468Z,25.58
2023-06-19T22:03:11.999Z,25.50
2023-06-19T22:06:14.993Z,25.33
2023-06-19T22:09:16.402Z,25.35
2023-06-19T22:12:17.806Z,25.36
2023-06-19T22:15:19.455Z,25.34
2023-06-19T22:18:20.868Z,25.27
2023-06-19T22:21:22.263Z,25.23
2023-06-19T22:24:24.367Z,25.14
2023-06-19T22:27:25.784Z,25.12
2023-06-19T22:30:27.527Z,25.10
2023-06-19T22:33:29.200Z,25.08
2023-06-19T22:36:30.648Z,25.02
2023-06-19T22:39:33.434Z,25.01
2023-06-19T22:42:35.170Z,24.98
2023-06-19T22:45:36.683Z,24.89
2023-06-19T22:48:42.180Z,24.77
2023-06-19T22:51:43.559Z,24.73
2023-06-19T22:54:44.938Z,24.75
2023-06-19T22:57:46.318Z,24.72
2023-06-19T23:00:47.737Z,24.66
2023-06-19T23:03:49.198Z,24.65
2023-06-19T23:06:52.248Z,24.66
2023-06-19T23:09:56.539Z,24.66
2023-06-19T23:12:57.944Z,24.65
2023-06-19T23:15:59.352Z,24.57
2023-06-19T23:19:01.015Z,24.41
2023-06-19T23:22:03.299Z,24.29
2023-06-19T23:25:08.432Z,24.24
2023-06-19T23:28:13.948Z,24.27
2023-06-19T23:31:15.335Z,24.30
2023-06-19T23:34:16.744Z,24.25
2023-06-19T23:37:18.289Z,24.24
2023-06-19T23:40:19.740Z,24.22
2023-06-19T23:43:21.189Z,24.17
2023-06-19T23:46:22.656Z,24.11
2023-06-19T23:49:24.114Z,24.08
2023-06-19T23:52:38.251Z,24.05
2023-06-19T23:55:44.814Z,23.96
2023-06-19T23:58:46.268Z,23.90
